sensor_id;sensor_type;location;lat;lon;timestamp;P1;durP1;ratioP1;P2;durP2;ratioP2
21804;SDS011;11064;47.102;15.452;2022-11-20T06:01:44;427.85;;;26.10;;
21804;SDS011;11064;47.102;15.452;2022-11-20T06:04:09;69.85;;;14.77;;
21804;SDS011;11064;47.102;15.452;2022-11-20T06:06:35;29.23;;;15.02;;
21804;SDS011;11064;47.102;15.452;2022-11-20T06:09:01;246.55;;;22.08;;
21804;SDS011;11064;47.102;15.452;2022-11-20T06:11:26;79.40;;;16.40;;
21804;SDS011;11064;47.102;15.452;2022-11-20T06:13:52;64.38;;;14.75;;
21804;SDS011;11064;47.102;15.452;2022-11-20T06:16:18;28.77;;;14.00;;
21804;SDS011;11064;47.102;15.452;2022-11-20T06:18:45;49.85;;;14.50;;
21804;SDS011;11064;47.102;15.452;2022-11-20T06:21:12;87.63;;;16.85;;
21804;SDS011;11064;47.102;15.452;2022-11-20T06:23:38;22.02;;;12.60;;
21804;SDS011;11064;47.102;15.452;2022-11-20T06:26:05;25.52;;;13.95;;
21804;SDS011;11064;47.102;15.452;2022-11-20T06:28:32;28.77;;;13.10;;
21804;SDS011;11064;47.102;15.452;2022-11-20T06:30:58;32.00;;;13.27;;
21804;SDS011;11064;47.102;15.452;2022-11-20T06:33:24;82.22;;;15.10;;
21804;SDS011;11064;47.102;15.452;2022-11-20T06:35:51;105.65;;;16.10;;
21804;SDS011;11064;47.102;15.452;2022-11-20T06:38:16;25.27;;;14.00;;
21804;SDS011;11064;47.102;15.452;2022-11-20T06:40:42;29.10;;;13.50;;
21804;SDS011;11064;47.102;15.452;2022-11-20T06:43:09;29.17;;;14.55;;
21804;SDS011;11064;47.102;15.452;2022-11-20T06:45:35;32.47;;;15.45;;
21804;SDS011;11064;47.102;15.452;2022-11-20T06:48:01;28.67;;;13.88;;
21804;SDS011;11064;47.102;15.452;2022-11-20T06:50:28;47.50;;;15.60;;
21804;SDS011;11064;47.102;15.452;2022-11-20T06:52:54;59.30;;;16.92;;
21804;SDS011;11064;47.102;15.452;2022-11-20T06:55:19;44.50;;;15.13;;
21804;SDS011;11064;47.102;15.452;2022-11-20T06:57:45;181.50;;;18.48;;
21804;SDS011;11064;47.102;15.452;2022-11-20T07:00:11;42.45;;;16.17;;
21804;SDS011;11064;47.102;15.452;2022-11-20T07:02:37;37.17;;;15.63;;
21804;SDS011;11064;47.102;15.452;2022-11-20T07:05:03;50.72;;;17.00;;
21804;SDS011;11064;47.102;15.452;2022-11-20T07:07:29;101.78;;;19.58;;
21804;SDS011;11064;47.102;15.452;2022-11-20T07:09:54;77.97;;;16.48;;
21804;SDS011;11064;47.102;15.452;2022-11-20T07:12:20;29.17;;;14.25;;
21804;SDS011;11064;47.102;15.452;2022-11-20T07:14:46;181.70;;;17.45;;
21804;SDS011;11064;47.102;15.452;2022-11-20T07:17:12;577.45;;;34.75;;
21804;SDS011;11064;47.102;15.452;2022-11-20T07:19:38;360.65;;;27.48;;
21804;SDS011;11064;47.102;15.452;2022-11-20T07:22:03;815.85;;;44.17;;
21804;SDS011;11064;47.102;15.452;2022-11-20T07:24:29;755.70;;;44.17;;
21804;SDS011;11064;47.102;15.452;2022-11-20T07:26:55;553.88;;;32.53;;
21804;SDS011;11064;47.102;15.452;2022-11-20T07:29:21;1351.78;;;68.80;;
21804;SDS011;11064;47.102;15.452;2022-11-20T07:31:46;688.67;;;41.58;;
21804;SDS011;11064;47.102;15.452;2022-11-20T07:34:12;1341.45;;;67.03;;
21804;SDS011;11064;47.102;15.452;2022-11-20T07:36:38;435.10;;;27.00;;
21804;SDS011;11064;47.102;15.452;2022-11-20T07:39:04;404.02;;;24.58;;
21804;SDS011;11064;47.102;15.452;2022-11-20T07:41:30;768.00;;;39.55;;
21804;SDS011;11064;47.102;15.452;2022-11-20T07:43:56;397.80;;;30.30;;
21804;SDS011;11064;47.102;15.452;2022-11-20T07:46:22;656.00;;;38.92;;
21804;SDS011;11064;47.102;15.452;2022-11-20T07:48:47;698.38;;;35.67;;
21804;SDS011;11064;47.102;15.452;2022-11-20T07:51:13;521.38;;;30.40;;
21804;SDS011;11064;47.102;15.452;2022-11-20T07:53:39;334.75;;;23.88;;
21804;SDS011;11064;47.102;15.452;2022-11-20T07:56:05;188.88;;;20.77;;
21804;SDS011;11064;47.102;15.452;2022-11-20T07:58:31;213.32;;;18.20;;
21804;SDS011;11064;47.102;15.452;2022-11-20T08:01:05;40.95;;;13.98;;
21804;SDS011;11064;47.102;15.452;2022-11-20T08:03:32;101.95;;;16.02;;
21804;SDS011;11064;47.102;15.452;2022-11-20T08:06:01;109.38;;;17.23;;
21804;SDS011;11064;47.102;15.452;2022-11-20T08:08:27;27.45;;;13.93;;
21804;SDS011;11064;47.102;15.452;2022-11-20T08:10:53;26.63;;;13.07;;
21804;SDS011;11064;47.102;15.452;2022-11-20T08:13:41;19.67;;;12.88;;
21804;SDS011;11064;47.102;15.452;2022-11-20T08:16:25;19.83;;;12.35;;
21804;SDS011;11064;47.102;15.452;2022-11-20T08:18:51;19.27;;;12.52;;
21804;SDS011;11064;47.102;15.452;2022-11-20T08:21:16;19.52;;;11.85;;
21804;SDS011;11064;47.102;15.452;2022-11-20T08:23:42;20.48;;;12.13;;
21804;SDS011;11064;47.102;15.452;2022-11-20T08:26:08;18.77;;;11.80;;
21804;SDS011;11064;47.102;15.452;2022-11-20T08:28:33;17.08;;;11.88;;
21804;SDS011;11064;47.102;15.452;2022-11-20T08:30:59;87.70;;;13.75;;
21804;SDS011;11064;47.102;15.452;2022-11-20T08:33:26;18.75;;;11.65;;
21804;SDS011;11064;47.102;15.452;2022-11-20T08:35:52;19.85;;;12.57;;
21804;SDS011;11064;47.102;15.452;2022-11-20T08:38:17;19.35;;;13.38;;
21804;SDS011;11064;47.102;15.452;2022-11-20T08:40:43;20.00;;;13.07;;
21804;SDS011;11064;47.102;15.452;2022-11-20T08:43:29;23.27;;;13.93;;
21804;SDS011;11064;47.102;15.452;2022-11-20T08:45:56;30.40;;;14.43;;
21804;SDS011;11064;47.102;15.452;2022-11-20T08:48:22;47.50;;;14.50;;
21804;SDS011;11064;47.102;15.452;2022-11-20T08:50:48;117.60;;;15.95;;
21804;SDS011;11064;47.102;15.452;2022-11-20T08:53:14;23.30;;;13.85;;
21804;SDS011;11064;47.102;15.452;2022-11-20T08:55:39;20.27;;;13.27;;
21804;SDS011;11064;47.102;15.452;2022-11-20T08:58:06;19.85;;;12.85;;
21804;SDS011;11064;47.102;15.452;2022-11-20T09:00:32;27.13;;;14.23;;
21804;SDS011;11064;47.102;15.452;2022-11-20T09:02:59;24.17;;;13.13;;
21804;SDS011;11064;47.102;15.452;2022-11-20T09:05:26;21.65;;;13.23;;
21804;SDS011;11064;47.102;15.452;2022-11-20T09:07:55;19.95;;;13.30;;
21804;SDS011;11064;47.102;15.452;2022-11-20T09:10:24;20.65;;;13.82;;
21804;SDS011;11064;47.102;15.452;2022-11-20T09:12:53;19.38;;;13.13;;
21804;SDS011;11064;47.102;15.452;2022-11-20T09:15:23;18.50;;;12.73;;
21804;SDS011;11064;47.102;15.452;2022-11-20T09:17:51;20.73;;;13.13;;
21804;SDS011;11064;47.102;15.452;2022-11-20T09:20:17;21.55;;;13.55;;
21804;SDS011;11064;47.102;15.452;2022-11-20T09:22:43;18.40;;;12.63;;
21804;SDS011;11064;47.102;15.452;2022-11-20T09:25:09;21.08;;;12.38;;
21804;SDS011;11064;47.102;15.452;2022-11-20T09:27:35;20.75;;;13.10;;
21804;SDS011;11064;47.102;15.452;2022-11-20T09:30:01;19.58;;;12.48;;
21804;SDS011;11064;47.102;15.452;2022-11-20T09:32:27;19.98;;;12.80;;
21804;SDS011;11064;47.102;15.452;2022-11-20T09:34:53;17.48;;;11.98;;
21804;SDS011;11064;47.102;15.452;2022-11-20T09:37:19;18.73;;;12.30;;
21804;SDS011;11064;47.102;15.452;2022-11-20T09:39:44;18.65;;;12.48;;
21804;SDS011;11064;47.102;15.452;2022-11-20T09:47:38;17.90;;;12.45;;
21804;SDS011;11064;47.102;15.452;2022-11-20T09:50:22;18.45;;;11.77;;
21804;SDS011;11064;47.102;15.452;2022-11-20T09:55:23;17.70;;;11.95;;
21804;SDS011;11064;47.102;15.452;2022-11-20T09:57:51;18.30;;;12.85;;
21804;SDS011;11064;47.102;15.452;2022-11-20T10:00:17;17.52;;;11.85;;
21804;SDS011;11064;47.102;15.452;2022-11-20T10:02:55;19.38;;;12.15;;
21804;SDS011;11064;47.102;15.452;2022-11-20T10:05:40;17.02;;;12.15;;
21804;SDS011;11064;47.102;15.452;2022-11-20T10:08:28;17.77;;;12.05;;
21804;SDS011;11064;47.102;15.452;2022-11-20T10:16:24;17.35;;;11.13;;
21804;SDS011;11064;47.102;15.452;2022-11-20T10:19:18;16.13;;;11.38;;
21804;SDS011;11064;47.102;15.452;2022-11-20T10:30:43;17.10;;;11.57;;
21804;SDS011;11064;47.102;15.452;2022-11-20T10:33:15;16.55;;;11.80;;
21804;SDS011;11064;47.102;15.452;2022-11-20T10:36:05;16.40;;;11.63;;
21804;SDS011;11064;47.102;15.452;2022-11-20T10:38:49;14.75;;;10.27;;
21804;SDS011;11064;47.102;15.452;2022-11-20T10:41:32;14.57;;;10.00;;
21804;SDS011;11064;47.102;15.452;2022-11-20T10:44:05;13.45;;;10.35;;
21804;SDS011;11064;47.102;15.452;2022-11-20T10:47:01;13.23;;;9.73;;
21804;SDS011;11064;47.102;15.452;2022-11-20T10:49:27;12.20;;;9.30;;
21804;SDS011;11064;47.102;15.452;2022-11-20T11:00:32;11.23;;;8.30;;
21804;SDS011;11064;47.102;15.452;2022-11-20T11:02:58;11.20;;;8.45;;
21804;SDS011;11064;47.102;15.452;2022-11-20T11:08:32;11.60;;;8.98;;
21804;SDS011;11064;47.102;15.452;2022-11-20T11:11:23;10.35;;;8.07;;
21804;SDS011;11064;47.102;15.452;2022-11-20T11:13:48;7.22;;;5.68;;
21804;SDS011;11064;47.102;15.452;2022-11-20T11:16:21;7.22;;;6.00;;
21804;SDS011;11064;47.102;15.452;2022-11-20T11:18:49;8.45;;;6.40;;
21804;SDS011;11064;47.102;15.452;2022-11-20T11:21:25;9.25;;;7.00;;
21804;SDS011;11064;47.102;15.452;2022-11-20T11:24:02;9.23;;;7.38;;
21804;SDS011;11064;47.102;15.452;2022-11-20T11:26:29;10.98;;;7.75;;
21804;SDS011;11064;47.102;15.452;2022-11-20T11:31:23;9.48;;;7.82;;
21804;SDS011;11064;47.102;15.452;2022-11-20T11:33:49;13.05;;;9.27;;
21804;SDS011;11064;47.102;15.452;2022-11-20T11:36:20;12.68;;;9.38;;
21804;SDS011;11064;47.102;15.452;2022-11-20T11:38:50;11.63;;;8.98;;
21804;SDS011;11064;47.102;15.452;2022-11-20T11:41:20;13.10;;;9.57;;
21804;SDS011;11064;47.102;15.452;2022-11-20T11:43:58;12.20;;;9.43;;
21804;SDS011;11064;47.102;15.452;2022-11-20T11:46:56;13.80;;;9.80;;
21804;SDS011;11064;47.102;15.452;2022-11-20T11:49:23;13.32;;;9.75;;
21804;SDS011;11064;47.102;15.452;2022-11-20T11:52:00;13.25;;;9.68;;
21804;SDS011;11064;47.102;15.452;2022-11-20T11:54:38;13.52;;;10.18;;
21804;SDS011;11064;47.102;15.452;2022-11-20T11:57:26;16.88;;;12.13;;
21804;SDS011;11064;47.102;15.452;2022-11-20T12:12:47;11.10;;;7.60;;
21804;SDS011;11064;47.102;15.452;2022-11-20T12:15:30;12.75;;;8.38;;
21804;SDS011;11064;47.102;15.452;2022-11-20T12:17:59;11.40;;;7.55;;
21804;SDS011;11064;47.102;15.452;2022-11-20T12:20:28;10.35;;;7.55;;
21804;SDS011;11064;47.102;15.452;2022-11-20T12:26:02;10.57;;;7.45;;
21804;SDS011;11064;47.102;15.452;2022-11-20T12:40:28;9.88;;;7.25;;
21804;SDS011;11064;47.102;15.452;2022-11-20T12:43:24;10.93;;;6.13;;
21804;SDS011;11064;47.102;15.452;2022-11-20T12:52:10;9.23;;;6.15;;
21804;SDS011;11064;47.102;15.452;2022-11-20T12:57:27;7.43;;;5.65;;
21804;SDS011;11064;47.102;15.452;2022-11-20T13:00:06;9.00;;;6.00;;
21804;SDS011;11064;47.102;15.452;2022-11-20T13:08:06;9.27;;;6.15;;
21804;SDS011;11064;47.102;15.452;2022-11-20T13:10:45;8.82;;;5.80;;
21804;SDS011;11064;47.102;15.452;2022-11-20T13:15:56;8.70;;;5.80;;
21804;SDS011;11064;47.102;15.452;2022-11-20T13:18:36;8.52;;;6.00;;
21804;SDS011;11064;47.102;15.452;2022-11-20T13:21:15;8.25;;;5.80;;
21804;SDS011;11064;47.102;15.452;2022-11-20T13:24:06;8.75;;;5.78;;
21804;SDS011;11064;47.102;15.452;2022-11-20T13:26:32;7.32;;;5.55;;
21804;SDS011;11064;47.102;15.452;2022-11-20T13:29:09;7.10;;;5.30;;
21804;SDS011;11064;47.102;15.452;2022-11-20T13:31:42;7.18;;;5.30;;
21804;SDS011;11064;47.102;15.452;2022-11-20T13:34:11;6.88;;;5.57;;
21804;SDS011;11064;47.102;15.452;2022-11-20T13:36:49;6.60;;;4.60;;
21804;SDS011;11064;47.102;15.452;2022-11-20T13:39:27;6.35;;;5.03;;
21804;SDS011;11064;47.102;15.452;2022-11-20T13:41:55;5.57;;;4.40;;
21804;SDS011;11064;47.102;15.452;2022-11-20T13:44:43;6.45;;;4.35;;
21804;SDS011;11064;47.102;15.452;2022-11-20T13:47:27;5.50;;;4.30;;
21804;SDS011;11064;47.102;15.452;2022-11-20T13:49:55;4.00;;;3.25;;
21804;SDS011;11064;47.102;15.452;2022-11-20T13:55:12;4.28;;;3.10;;
21804;SDS011;11064;47.102;15.452;2022-11-20T14:00:17;4.80;;;3.35;;
21804;SDS011;11064;47.102;15.452;2022-11-20T14:02:47;5.07;;;3.08;;
21804;SDS011;11064;47.102;15.452;2022-11-20T14:05:20;5.63;;;3.63;;
21804;SDS011;11064;47.102;15.452;2022-11-20T14:07:47;5.15;;;3.28;;
21804;SDS011;11064;47.102;15.452;2022-11-20T14:12:49;5.72;;;4.10;;
21804;SDS011;11064;47.102;15.452;2022-11-20T14:15:26;6.63;;;4.20;;
21804;SDS011;11064;47.102;15.452;2022-11-20T14:17:55;6.32;;;4.07;;
21804;SDS011;11064;47.102;15.452;2022-11-20T14:20:21;6.65;;;4.15;;
21804;SDS011;11064;47.102;15.452;2022-11-20T14:22:51;8.05;;;4.40;;
21804;SDS011;11064;47.102;15.452;2022-11-20T14:27:46;5.43;;;3.95;;
21804;SDS011;11064;47.102;15.452;2022-11-20T14:30:20;6.00;;;4.38;;
21804;SDS011;11064;47.102;15.452;2022-11-20T14:32:48;6.18;;;4.30;;
21804;SDS011;11064;47.102;15.452;2022-11-20T14:35:35;5.10;;;3.85;;
21804;SDS011;11064;47.102;15.452;2022-11-20T14:38:09;6.20;;;4.22;;
21804;SDS011;11064;47.102;15.452;2022-11-20T14:40:38;4.90;;;3.50;;
21804;SDS011;11064;47.102;15.452;2022-11-20T14:45:46;5.50;;;4.07;;
21804;SDS011;11064;47.102;15.452;2022-11-20T14:48:28;5.50;;;4.15;;
21804;SDS011;11064;47.102;15.452;2022-11-20T14:51:28;7.03;;;4.70;;
21804;SDS011;11064;47.102;15.452;2022-11-20T14:56:36;6.13;;;4.78;;
21804;SDS011;11064;47.102;15.452;2022-11-20T14:59:02;7.45;;;5.32;;
21804;SDS011;11064;47.102;15.452;2022-11-20T15:01:28;6.63;;;5.13;;
21804;SDS011;11064;47.102;15.452;2022-11-20T15:06:31;7.70;;;6.07;;
21804;SDS011;11064;47.102;15.452;2022-11-20T15:08:57;8.45;;;6.13;;
21804;SDS011;11064;47.102;15.452;2022-11-20T15:11:27;8.98;;;6.10;;
21804;SDS011;11064;47.102;15.452;2022-11-20T15:13:55;9.80;;;6.20;;
21804;SDS011;11064;47.102;15.452;2022-11-20T15:16:22;8.65;;;6.22;;
21804;SDS011;11064;47.102;15.452;2022-11-20T15:18:49;9.45;;;6.40;;
21804;SDS011;11064;47.102;15.452;2022-11-20T15:21:17;9.98;;;7.10;;
21804;SDS011;11064;47.102;15.452;2022-11-20T15:23:46;10.60;;;7.55;;
21804;SDS011;11064;47.102;15.452;2022-11-20T15:26:12;10.60;;;7.60;;
21804;SDS011;11064;47.102;15.452;2022-11-20T15:28:49;13.73;;;8.45;;
21804;SDS011;11064;47.102;15.452;2022-11-20T15:31:17;12.32;;;8.43;;
21804;SDS011;11064;47.102;15.452;2022-11-20T15:33:44;14.02;;;9.75;;
21804;SDS011;11064;47.102;15.452;2022-11-20T15:36:10;13.80;;;9.45;;
21804;SDS011;11064;47.102;15.452;2022-11-20T15:38:36;15.57;;;10.15;;
21804;SDS011;11064;47.102;15.452;2022-11-20T15:41:02;14.18;;;9.80;;
21804;SDS011;11064;47.102;15.452;2022-11-20T15:43:28;14.70;;;9.93;;
21804;SDS011;11064;47.102;15.452;2022-11-20T15:45:55;22.60;;;13.93;;
21804;SDS011;11064;47.102;15.452;2022-11-20T15:51:27;14.00;;;9.75;;
21804;SDS011;11064;47.102;15.452;2022-11-20T15:53:57;18.50;;;12.10;;
21804;SDS011;11064;47.102;15.452;2022-11-20T15:56:23;25.27;;;14.60;;
21804;SDS011;11064;47.102;15.452;2022-11-20T15:58:49;17.83;;;12.32;;
21804;SDS011;11064;47.102;15.452;2022-11-20T16:01:16;18.27;;;12.57;;
21804;SDS011;11064;47.102;15.452;2022-11-20T16:03:43;20.30;;;13.82;;
21804;SDS011;11064;47.102;15.452;2022-11-20T16:06:09;21.20;;;14.20;;
21804;SDS011;11064;47.102;15.452;2022-11-20T16:08:35;19.17;;;13.00;;
21804;SDS011;11064;47.102;15.452;2022-11-20T16:11:01;21.30;;;14.02;;
21804;SDS011;11064;47.102;15.452;2022-11-20T16:13:28;24.67;;;14.50;;
21804;SDS011;11064;47.102;15.452;2022-11-20T16:16:24;25.90;;;16.77;;
21804;SDS011;11064;47.102;15.452;2022-11-20T16:18:55;31.35;;;17.80;;
21804;SDS011;11064;47.102;15.452;2022-11-20T16:21:22;25.58;;;16.67;;
21804;SDS011;11064;47.102;15.452;2022-11-20T16:24:01;26.77;;;17.48;;
21804;SDS011;11064;47.102;15.452;2022-11-20T16:26:28;30.30;;;18.52;;
21804;SDS011;11064;47.102;15.452;2022-11-20T16:28:54;28.15;;;17.77;;
21804;SDS011;11064;47.102;15.452;2022-11-20T16:31:21;27.45;;;18.13;;
21804;SDS011;11064;47.102;15.452;2022-11-20T16:33:54;30.70;;;19.20;;
21804;SDS011;11064;47.102;15.452;2022-11-20T16:36:22;75.68;;;21.92;;
21804;SDS011;11064;47.102;15.452;2022-11-20T16:38:52;220.75;;;26.17;;
21804;SDS011;11064;47.102;15.452;2022-11-20T16:41:19;80.13;;;22.23;;
21804;SDS011;11064;47.102;15.452;2022-11-20T16:46:16;92.85;;;21.08;;
21804;SDS011;11064;47.102;15.452;2022-11-20T16:48:44;35.40;;;25.77;;
21804;SDS011;11064;47.102;15.452;2022-11-20T16:51:11;394.33;;;36.80;;
21804;SDS011;11064;47.102;15.452;2022-11-20T16:53:37;193.30;;;28.15;;
21804;SDS011;11064;47.102;15.452;2022-11-20T16:56:13;49.05;;;22.67;;
21804;SDS011;11064;47.102;15.452;2022-11-20T16:58:41;45.83;;;21.80;;
21804;SDS011;11064;47.102;15.452;2022-11-20T17:01:08;120.80;;;22.63;;
21804;SDS011;11064;47.102;15.452;2022-11-20T17:03:39;29.17;;;19.45;;
21804;SDS011;11064;47.102;15.452;2022-11-20T17:06:18;29.92;;;19.80;;
21804;SDS011;11064;47.102;15.452;2022-11-20T17:08:46;38.80;;;20.30;;
21804;SDS011;11064;47.102;15.452;2022-11-20T17:11:15;266.90;;;28.45;;
21804;SDS011;11064;47.102;15.452;2022-11-20T17:16:13;160.02;;;21.83;;
21804;SDS011;11064;47.102;15.452;2022-11-20T17:18:41;102.68;;;18.88;;
21804;SDS011;11064;47.102;15.452;2022-11-20T17:21:08;180.75;;;22.10;;
21804;SDS011;11064;47.102;15.452;2022-11-20T17:23:36;346.48;;;26.77;;
21804;SDS011;11064;47.102;15.452;2022-11-20T17:26:07;59.45;;;18.45;;
21804;SDS011;11064;47.102;15.452;2022-11-20T17:28:42;56.97;;;19.25;;
21804;SDS011;11064;47.102;15.452;2022-11-20T17:31:12;93.33;;;19.83;;
21804;SDS011;11064;47.102;15.452;2022-11-20T17:33:41;26.50;;;18.35;;
21804;SDS011;11064;47.102;15.452;2022-11-20T17:36:08;325.48;;;26.85;;
21804;SDS011;11064;47.102;15.452;2022-11-20T17:38:35;124.80;;;20.23;;
21804;SDS011;11064;47.102;15.452;2022-11-20T17:41:14;35.15;;;18.13;;
21804;SDS011;11064;47.102;15.452;2022-11-20T17:43:42;250.27;;;24.33;;
21804;SDS011;11064;47.102;15.452;2022-11-20T17:46:09;108.85;;;19.50;;
21804;SDS011;11064;47.102;15.452;2022-11-20T17:48:37;485.63;;;36.55;;
21804;SDS011;11064;47.102;15.452;2022-11-20T17:51:06;263.27;;;24.48;;
21804;SDS011;11064;47.102;15.452;2022-11-20T17:53:34;237.05;;;24.77;;
21804;SDS011;11064;47.102;15.452;2022-11-20T17:56:01;104.65;;;19.73;;
21804;SDS011;11064;47.102;15.452;2022-11-20T17:58:46;119.78;;;19.10;;
21804;SDS011;11064;47.102;15.452;2022-11-20T18:01:12;83.75;;;18.40;;
21804;SDS011;11064;47.102;15.452;2022-11-20T18:03:39;50.20;;;18.83;;
21804;SDS011;11064;47.102;15.452;2022-11-20T18:08:35;363.75;;;26.98;;
21804;SDS011;11064;47.102;15.452;2022-11-20T18:11:21;27.35;;;17.23;;
21804;SDS011;11064;47.102;15.452;2022-11-20T18:13:51;233.45;;;26.15;;
21804;SDS011;11064;47.102;15.452;2022-11-20T18:16:42;94.05;;;18.92;;
21804;SDS011;11064;47.102;15.452;2022-11-20T18:19:14;789.28;;;43.45;;
21804;SDS011;11064;47.102;15.452;2022-11-20T18:21:42;475.75;;;32.00;;
21804;SDS011;11064;47.102;15.452;2022-11-20T18:24:07;833.90;;;44.92;;
21804;SDS011;11064;47.102;15.452;2022-11-20T18:26:34;730.33;;;42.22;;
21804;SDS011;11064;47.102;15.452;2022-11-20T18:29:00;402.80;;;29.38;;
21804;SDS011;11064;47.102;15.452;2022-11-20T18:31:27;736.92;;;44.53;;
21804;SDS011;11064;47.102;15.452;2022-11-20T18:33:52;1075.18;;;61.65;;
21804;SDS011;11064;47.102;15.452;2022-11-20T18:36:20;222.52;;;27.33;;
21804;SDS011;11064;47.102;15.452;2022-11-20T18:38:48;217.20;;;30.20;;
21804;SDS011;11064;47.102;15.452;2022-11-20T18:41:16;261.73;;;33.92;;
21804;SDS011;11064;47.102;15.452;2022-11-20T18:44:02;53.95;;;24.05;;
21804;SDS011;11064;47.102;15.452;2022-11-20T18:46:48;53.35;;;23.92;;
21804;SDS011;11064;47.102;15.452;2022-11-20T18:49:14;49.78;;;24.95;;
21804;SDS011;11064;47.102;15.452;2022-11-20T18:51:40;45.33;;;24.23;;
21804;SDS011;11064;47.102;15.452;2022-11-20T18:54:08;42.25;;;22.77;;
21804;SDS011;11064;47.102;15.452;2022-11-20T18:56:35;44.40;;;24.30;;
21804;SDS011;11064;47.102;15.452;2022-11-20T18:59:02;54.88;;;23.75;;
21804;SDS011;11064;47.102;15.452;2022-11-20T19:01:29;68.80;;;24.30;;
21804;SDS011;11064;47.102;15.452;2022-11-20T19:03:55;55.45;;;25.80;;
21804;SDS011;11064;47.102;15.452;2022-11-20T19:06:21;49.60;;;24.83;;
21804;SDS011;11064;47.102;15.452;2022-11-20T19:08:47;51.15;;;24.23;;
21804;SDS011;11064;47.102;15.452;2022-11-20T19:11:13;95.75;;;25.27;;
21804;SDS011;11064;47.102;15.452;2022-11-20T19:13:39;41.22;;;23.80;;
21804;SDS011;11064;47.102;15.452;2022-11-20T19:16:06;45.60;;;23.83;;
21804;SDS011;11064;47.102;15.452;2022-11-20T19:18:32;44.88;;;24.30;;
21804;SDS011;11064;47.102;15.452;2022-11-20T19:21:05;42.78;;;24.63;;
21804;SDS011;11064;47.102;15.452;2022-11-20T19:23:35;42.70;;;23.70;;
21804;SDS011;11064;47.102;15.452;2022-11-20T19:26:01;47.45;;;24.77;;
21804;SDS011;11064;47.102;15.452;2022-11-20T19:28:31;44.25;;;24.42;;
21804;SDS011;11064;47.102;15.452;2022-11-20T19:31:05;42.78;;;24.05;;
21804;SDS011;11064;47.102;15.452;2022-11-20T19:33:33;49.00;;;24.35;;
21804;SDS011;11064;47.102;15.452;2022-11-20T19:36:12;41.67;;;22.20;;
21804;SDS011;11064;47.102;15.452;2022-11-20T19:38:44;36.22;;;22.65;;
21804;SDS011;11064;47.102;15.452;2022-11-20T19:41:13;38.45;;;23.50;;
21804;SDS011;11064;47.102;15.452;2022-11-20T19:43:39;41.10;;;23.35;;
21804;SDS011;11064;47.102;15.452;2022-11-20T19:46:05;39.00;;;23.02;;
21804;SDS011;11064;47.102;15.452;2022-11-20T19:48:32;41.08;;;23.25;;
21804;SDS011;11064;47.102;15.452;2022-11-20T19:51:16;64.78;;;24.15;;
21804;SDS011;11064;47.102;15.452;2022-11-20T19:53:43;36.28;;;22.08;;
21804;SDS011;11064;47.102;15.452;2022-11-20T19:56:09;36.67;;;23.08;;
21804;SDS011;11064;47.102;15.452;2022-11-20T19:58:36;34.03;;;20.92;;
21804;SDS011;11064;47.102;15.452;2022-11-20T20:01:06;36.78;;;22.02;;
21804;SDS011;11064;47.102;15.452;2022-11-20T20:03:38;33.03;;;20.17;;
21804;SDS011;11064;47.102;15.452;2022-11-20T20:06:06;31.95;;;19.75;;
21804;SDS011;11064;47.102;15.452;2022-11-20T20:08:34;28.50;;;18.55;;
21804;SDS011;11064;47.102;15.452;2022-11-20T20:11:08;27.95;;;17.50;;
21804;SDS011;11064;47.102;15.452;2022-11-20T20:13:41;28.05;;;17.88;;
21804;SDS011;11064;47.102;15.452;2022-11-20T20:16:08;26.10;;;17.17;;
21804;SDS011;11064;47.102;15.452;2022-11-20T20:18:45;26.75;;;17.15;;
21804;SDS011;11064;47.102;15.452;2022-11-20T20:21:11;26.23;;;16.50;;
21804;SDS011;11064;47.102;15.452;2022-11-20T20:23:39;23.10;;;15.18;;
21804;SDS011;11064;47.102;15.452;2022-11-20T20:26:06;28.15;;;17.20;;
21804;SDS011;11064;47.102;15.452;2022-11-20T20:28:32;28.10;;;16.80;;
21804;SDS011;11064;47.102;15.452;2022-11-20T20:31:09;28.60;;;16.90;;
21804;SDS011;11064;47.102;15.452;2022-11-20T20:33:38;30.75;;;18.77;;
21804;SDS011;11064;47.102;15.452;2022-11-20T20:36:06;30.52;;;19.00;;
21804;SDS011;11064;47.102;15.452;2022-11-20T20:38:33;32.95;;;19.88;;
21804;SDS011;11064;47.102;15.452;2022-11-20T20:40:59;30.35;;;18.40;;
21804;SDS011;11064;47.102;15.452;2022-11-20T20:43:26;30.65;;;19.10;;
21804;SDS011;11064;47.102;15.452;2022-11-20T20:45:52;30.63;;;18.75;;
21804;SDS011;11064;47.102;15.452;2022-11-20T20:48:19;35.33;;;20.85;;
21804;SDS011;11064;47.102;15.452;2022-11-20T20:50:59;32.90;;;18.85;;
21804;SDS011;11064;47.102;15.452;2022-11-20T20:53:28;45.92;;;19.67;;
21804;SDS011;11064;47.102;15.452;2022-11-20T20:55:55;70.50;;;23.05;;
21804;SDS011;11064;47.102;15.452;2022-11-20T20:58:22;36.63;;;21.48;;
21804;SDS011;11064;47.102;15.452;2022-11-20T21:00:48;275.20;;;26.58;;
21804;SDS011;11064;47.102;15.452;2022-11-20T21:03:14;36.80;;;19.80;;
21804;SDS011;11064;47.102;15.452;2022-11-20T21:05:40;82.32;;;19.23;;
21804;SDS011;11064;47.102;15.452;2022-11-20T21:08:06;42.67;;;19.25;;
21804;SDS011;11064;47.102;15.452;2022-11-20T21:13:12;61.00;;;20.60;;
21804;SDS011;11064;47.102;15.452;2022-11-20T21:15:38;100.35;;;23.00;;
21804;SDS011;11064;47.102;15.452;2022-11-20T21:18:04;476.73;;;36.03;;
21804;SDS011;11064;47.102;15.452;2022-11-20T21:20:30;47.58;;;19.88;;
21804;SDS011;11064;47.102;15.452;2022-11-20T21:23:14;237.18;;;27.95;;
21804;SDS011;11064;47.102;15.452;2022-11-20T21:25:40;33.95;;;18.45;;
21804;SDS011;11064;47.102;15.452;2022-11-20T21:28:06;34.20;;;19.67;;
21804;SDS011;11064;47.102;15.452;2022-11-20T21:30:32;48.25;;;21.15;;
21804;SDS011;11064;47.102;15.452;2022-11-20T21:32:58;32.13;;;19.20;;
21804;SDS011;11064;47.102;15.452;2022-11-20T21:35:24;30.65;;;19.02;;
21804;SDS011;11064;47.102;15.452;2022-11-20T21:37:51;34.30;;;20.13;;
21804;SDS011;11064;47.102;15.452;2022-11-20T21:40:17;65.95;;;20.67;;
21804;SDS011;11064;47.102;15.452;2022-11-20T21:42:42;37.65;;;20.02;;
21804;SDS011;11064;47.102;15.452;2022-11-20T21:45:08;251.55;;;24.67;;
21804;SDS011;11064;47.102;15.452;2022-11-20T21:47:34;546.78;;;41.00;;
21804;SDS011;11064;47.102;15.452;2022-11-20T21:50:00;120.88;;;21.52;;
21804;SDS011;11064;47.102;15.452;2022-11-20T21:52:25;256.20;;;27.15;;
21804;SDS011;11064;47.102;15.452;2022-11-20T21:54:51;298.85;;;28.90;;
21804;SDS011;11064;47.102;15.452;2022-11-20T21:57:17;369.35;;;28.15;;
21804;SDS011;11064;47.102;15.452;2022-11-20T21:59:42;868.88;;;47.55;;
21804;SDS011;11064;47.102;15.452;2022-11-20T22:02:11;317.00;;;24.95;;
21804;SDS011;11064;47.102;15.452;2022-11-20T22:04:37;78.25;;;20.33;;
21804;SDS011;11064;47.102;15.452;2022-11-20T22:07:06;54.95;;;19.83;;
21804;SDS011;11064;47.102;15.452;2022-11-20T22:09:31;136.70;;;22.65;;
21804;SDS011;11064;47.102;15.452;2022-11-20T22:11:57;144.27;;;22.35;;
21804;SDS011;11064;47.102;15.452;2022-11-20T22:14:23;39.20;;;20.77;;
21804;SDS011;11064;47.102;15.452;2022-11-20T22:16:49;62.60;;;21.48;;
21804;SDS011;11064;47.102;15.452;2022-11-20T22:19:17;109.72;;;20.48;;